createdAt,value
2017-10-27T00:01:17.063Z,12.24
2017-10-27T00:03:44.556Z,12.21
2017-10-27T00:06:12.117Z,12.18
2017-10-27T00:08:39.656Z,12.16
2017-10-27T00:11:07.233Z,12.12
2017-10-27T00:13:34.740Z,12.11
2017-10-27T00:16:02.272Z,12.09
2017-10-27T00:18:29.763Z,12.09
2017-10-27T00:20:57.403Z,12.08
2017-10-27T00:23:25.141Z,12.09
2017-10-27T00:25:52.637Z,12.08
2017-10-27T00:28:20.137Z,12.02
2017-10-27T00:30:47.807Z,11.97
2017-10-27T00:33:15.304Z,11.98
2017-10-27T00:35:42.824Z,11.95
2017-10-27T00:38:10.355Z,11.91
2017-10-27T00:40:37.861Z,11.90
2017-10-27T00:43:05.366Z,11.94
2017-10-27T00:45:32.882Z,11.95
2017-10-27T00:48:00.380Z,11.94
2017-10-27T00:50:27.917Z,11.99
2017-10-27T00:52:55.452Z,12.03
2017-10-27T00:55:22.940Z,12.04
2017-10-27T00:57:50.428Z,12.03
2017-10-27T01:00:17.979Z,12.01
2017-10-27T01:02:45.480Z,11.94
2017-10-27T01:05:12.965Z,11.90
2017-10-27T01:07:40.501Z,11.86
2017-10-27T01:10:07.992Z,11.80
2017-10-27T01:12:35.476Z,11.77
2017-10-27T01:15:03.059Z,11.74
2017-10-27T01:17:30.620Z,11.69
2017-10-27T01:19:58.169Z,11.71
2017-10-27T01:22:25.705Z,11.73
2017-10-27T01:24:53.196Z,11.72
2017-10-27T01:27:20.699Z,11.73
2017-10-27T01:29:48.327Z,11.73
2017-10-27T01:32:15.864Z,11.73
2017-10-27T01:34:43.353Z,11.73
2017-10-27T01:37:10.908Z,11.79
2017-10-27T01:39:38.392Z,11.76
2017-10-27T01:42:05.874Z,11.70
2017-10-27T01:44:33.455Z,11.69
2017-10-27T01:47:01.019Z,11.70
2017-10-27T01:49:28.514Z,11.63
2017-10-27T01:51:56.044Z,11.60
2017-10-27T01:54:23.532Z,11.57
2017-10-27T01:56:51.016Z,11.57
2017-10-27T01:59:18.526Z,11.60
2017-10-27T02:01:46.044Z,11.64
2017-10-27T02:04:13.531Z,11.63
2017-10-27T02:06:41.019Z,11.63
2017-10-27T02:09:08.555Z,11.63
2017-10-27T02:11:36.041Z,11.67
2017-10-27T02:14:03.527Z,11.65
2017-10-27T02:16:31.045Z,11.63
2017-10-27T02:18:58.532Z,11.63
2017-10-27T02:21:26.137Z,11.64
2017-10-27T02:23:53.631Z,11.67
2017-10-27T02:26:21.163Z,11.73
2017-10-27T02:28:48.676Z,11.67
2017-10-27T02:31:16.164Z,11.68
2017-10-27T02:33:43.652Z,11.69
2017-10-27T02:36:11.175Z,11.66
2017-10-27T02:38:38.662Z,11.63
2017-10-27T02:41:06.160Z,11.67
2017-10-27T02:43:33.673Z,11.63
2017-10-27T02:46:01.212Z,11.64
2017-10-27T02:48:28.729Z,11.66
2017-10-27T02:50:56.209Z,11.67
2017-10-27T02:53:23.697Z,11.59
2017-10-27T02:55:51.227Z,11.54
2017-10-27T02:58:18.712Z,11.52
2017-10-27T03:00:46.197Z,11.56
2017-10-27T03:03:13.917Z,11.46
2017-10-27T03:05:41.414Z,11.38
2017-10-27T03:08:08.895Z,11.34
2017-10-27T03:10:36.404Z,11.34
2017-10-27T03:13:03.932Z,11.31
2017-10-27T03:15:31.434Z,11.31
2017-10-27T03:17:58.930Z,11.33
2017-10-27T03:20:26.450Z,11.35
2017-10-27T03:22:53.968Z,11.34
2017-10-27T03:25:21.453Z,11.36
2017-10-27T03:27:48.967Z,11.34
2017-10-27T03:30:16.512Z,11.37
2017-10-27T03:32:44.005Z,11.34
2017-10-27T03:35:11.575Z,11.35
2017-10-27T03:37:39.160Z,11.31
2017-10-27T03:40:06.678Z,11.34
2017-10-27T03:42:34.163Z,11.37
2017-10-27T03:45:01.723Z,11.35
2017-10-27T03:47:29.278Z,11.34
2017-10-27T03:49:56.773Z,11.30
2017-10-27T03:52:24.277Z,11.32
2017-10-27T03:54:51.826Z,11.28
2017-10-27T03:57:19.319Z,11.26
2017-10-27T03:59:46.805Z,11.26
2017-10-27T04:02:14.344Z,11.27
2017-10-27T04:04:41.888Z,11.23
2017-10-27T04:07:09.379Z,11.20
2017-10-27T04:09:37.000Z,11.18
2017-10-27T04:12:04.491Z,11.22
2017-10-27T04:14:31.979Z,11.22
2017-10-27T04:16:59.489Z,11.26
2017-10-27T04:19:27.031Z,11.25
2017-10-27T04:21:54.540Z,11.22
2017-10-27T04:24:22.027Z,11.17
2017-10-27T04:26:49.570Z,11.19
2017-10-27T04:29:17.056Z,11.21
2017-10-27T04:31:44.541Z,11.20
2017-10-27T04:34:12.053Z,11.14
2017-10-27T04:36:39.582Z,11.08
2017-10-27T04:39:07.091Z,11.01
2017-10-27T04:41:34.584Z,11.05
2017-10-27T04:44:02.129Z,11.13
2017-10-27T04:46:29.607Z,11.18
2017-10-27T04:48:57.101Z,11.22
2017-10-27T04:51:24.617Z,11.21
2017-10-27T04:53:52.144Z,11.21
2017-10-27T04:56:19.670Z,11.24
2017-10-27T04:58:47.157Z,11.23
2017-10-27T05:01:14.645Z,11.21
2017-10-27T05:03:42.184Z,11.17
2017-10-27T05:06:09.674Z,11.22
2017-10-27T05:08:37.160Z,11.17
2017-10-27T05:11:04.679Z,11.09
2017-10-27T05:13:32.175Z,11.05
2017-10-27T05:15:59.657Z,11.04
2017-10-27T05:18:32.807Z,11.00
2017-10-27T05:21:05.943Z,10.95
2017-10-27T05:23:39.351Z,10.83
2017-10-27T05:26:06.844Z,10.73
2017-10-27T05:28:34.322Z,10.75
2017-10-27T05:31:01.864Z,10.73
2017-10-27T05:33:29.355Z,10.64
2017-10-27T05:35:56.843Z,10.64
2017-10-27T05:38:24.381Z,10.71
2017-10-27T05:40:51.944Z,10.69
2017-10-27T05:43:19.484Z,10.73
2017-10-27T05:45:47.071Z,10.75
2017-10-27T05:48:14.561Z,10.78
2017-10-27T05:50:42.112Z,10.88
2017-10-27T05:53:09.600Z,10.90
2017-10-27T05:55:37.102Z,10.88
2017-10-27T05:58:04.627Z,10.87
2017-10-27T06:00:32.112Z,10.88
2017-10-27T06:02:59.700Z,10.92
2017-10-27T06:05:27.342Z,10.87
2017-10-27T06:07:54.831Z,10.86
2017-10-27T06:10:22.327Z,10.85
2017-10-27T06:12:50.025Z,10.88
2017-10-27T06:15:17.517Z,10.91
2017-10-27T06:17:45.017Z,10.94
2017-10-27T06:20:12.900Z,10.95
2017-10-27T06:22:40.419Z,10.93
2017-10-27T06:25:07.904Z,10.91
2017-10-27T06:27:35.394Z,10.93
2017-10-27T06:30:02.923Z,10.93
2017-10-27T06:32:30.492Z,10.84
2017-10-27T06:34:58.057Z,10.80
2017-10-27T06:37:25.580Z,10.82
2017-10-27T06:39:53.077Z,10.87
2017-10-27T06:42:20.568Z,10.81
2017-10-27T06:44:48.095Z,10.73
2017-10-27T06:47:15.592Z,10.60
2017-10-27T06:49:43.076Z,10.50
2017-10-27T06:52:10.659Z,10.47
2017-10-27T06:54:38.227Z,10.47
2017-10-27T06:57:05.719Z,10.44
2017-10-27T06:59:33.261Z,10.53
2017-10-27T07:02:00.747Z,10.60
2017-10-27T07:04:28.235Z,10.53
2017-10-27T07:06:55.758Z,10.41
2017-10-27T07:09:23.251Z,10.39
2017-10-27T07:11:50.747Z,10.37
2017-10-27T07:14:18.282Z,10.41
2017-10-27T07:16:45.783Z,10.41
2017-10-27T07:19:13.271Z,10.45
2017-10-27T07:21:40.780Z,10.51
2017-10-27T07:24:08.273Z,10.60
2017-10-27T07:26:35.816Z,10.84
2017-10-27T07:29:03.308Z,11.04
2017-10-27T07:31:30.810Z,11.07
2017-10-27T07:33:58.452Z,11.04
2017-10-27T07:36:25.939Z,11.05
2017-10-27T07:38:53.428Z,11.09
2017-10-27T07:41:20.956Z,11.13
2017-10-27T07:43:48.461Z,11.12
2017-10-27T07:46:15.947Z,11.22
2017-10-27T07:48:43.476Z,11.27
2017-10-27T07:51:10.975Z,11.28
2017-10-27T07:53:38.458Z,11.26
2017-10-27T07:56:05.982Z,11.28
2017-10-27T07:58:33.464Z,11.24
2017-10-27T08:01:00.949Z,11.22
2017-10-27T08:03:28.493Z,11.31
2017-10-27T08:05:56.006Z,11.38
2017-10-27T08:08:23.498Z,11.35
2017-10-27T08:10:51.042Z,11.37
2017-10-27T08:13:18.527Z,11.35
2017-10-27T08:15:46.028Z,11.24
2017-10-27T08:18:13.596Z,11.18
2017-10-27T08:20:41.088Z,11.16
2017-10-27T08:23:08.635Z,11.00
2017-10-27T08:25:36.120Z,10.84
2017-10-27T08:28:03.606Z,10.84
2017-10-27T08:30:31.298Z,10.78
2017-10-27T08:32:58.788Z,10.80
2017-10-27T08:35:26.292Z,10.86
2017-10-27T08:37:53.872Z,10.99
2017-10-27T08:40:21.419Z,11.10
2017-10-27T08:42:48.917Z,11.17
2017-10-27T08:45:16.431Z,11.33
2017-10-27T08:47:44.000Z,11.55
2017-10-27T08:50:11.493Z,11.64
2017-10-27T08:52:39.039Z,11.73
2017-10-27T08:55:06.991Z,11.80
2017-10-27T08:57:34.548Z,11.68
2017-10-27T09:00:02.028Z,11.56
2017-10-27T09:02:29.671Z,11.36
2017-10-27T09:04:57.155Z,11.32
2017-10-27T09:07:24.640Z,11.31
2017-10-27T09:09:52.171Z,11.35
2017-10-27T09:12:19.658Z,11.54
2017-10-27T09:14:47.144Z,11.60
2017-10-27T09:17:14.713Z,11.68
2017-10-27T09:19:42.271Z,11.72
2017-10-27T09:22:09.761Z,11.65
2017-10-27T09:24:37.495Z,11.59
2017-10-27T09:27:05.001Z,11.49
2017-10-27T09:29:33.467Z,11.45
2017-10-27T09:32:01.109Z,11.39
2017-10-27T09:34:28.609Z,11.24
2017-10-27T09:36:56.101Z,10.96
2017-10-27T09:39:23.634Z,10.80
2017-10-27T09:41:51.121Z,10.66
2017-10-27T09:44:18.608Z,10.56
2017-10-27T09:46:46.141Z,10.58
2017-10-27T09:49:13.632Z,10.65
2017-10-27T09:51:41.124Z,10.68
2017-10-27T09:54:08.636Z,10.76
2017-10-27T09:56:36.182Z,10.94
2017-10-27T09:59:03.731Z,11.13
2017-10-27T10:01:31.221Z,11.20
2017-10-27T10:03:58.751Z,11.24
2017-10-27T10:06:26.249Z,11.17
2017-10-27T10:08:53.743Z,11.18
2017-10-27T10:11:21.436Z,11.23
2017-10-27T10:13:48.931Z,11.27
2017-10-27T10:16:16.418Z,11.25
2017-10-27T10:18:44.003Z,11.30
2017-10-27T10:21:11.492Z,11.23
2017-10-27T10:23:38.984Z,11.13
2017-10-27T10:26:06.519Z,11.18
2017-10-27T10:28:34.057Z,11.28
2017-10-27T10:31:01.547Z,11.32
2017-10-27T10:33:29.190Z,11.36
2017-10-27T10:35:56.716Z,11.44
2017-10-27T10:38:24.203Z,11.49
2017-10-27T10:40:51.722Z,11.48
2017-10-27T10:43:19.215Z,11.49
2017-10-27T10:45:46.760Z,11.65
2017-10-27T10:48:14.307Z,11.79
2017-10-27T10:50:41.865Z,11.88
2017-10-27T10:53:09.531Z,11.99
2017-10-27T10:55:37.016Z,11.96
2017-10-27T10:58:04.503Z,11.92
2017-10-27T11:00:32.149Z,11.83
2017-10-27T11:02:59.664Z,11.79
2017-10-27T11:05:27.149Z,11.71
2017-10-27T11:07:54.676Z,11.66
2017-10-27T11:10:22.173Z,11.79
2017-10-27T11:12:49.667Z,11.87
2017-10-27T11:15:17.218Z,11.92
2017-10-27T11:17:44.769Z,12.03
2017-10-27T11:20:12.279Z,12.04
2017-10-27T11:22:39.810Z,12.36
2017-10-27T11:25:07.302Z,12.45
2017-10-27T11:27:34.788Z,12.33
2017-10-27T11:30:02.312Z,12.19
2017-10-27T11:32:29.806Z,12.17
2017-10-27T11:34:57.292Z,12.31
2017-10-27T11:37:24.820Z,12.52
2017-10-27T11:39:52.311Z,12.46
2017-10-27T11:42:19.804Z,12.53
2017-10-27T11:44:47.340Z,12.55
2017-10-27T11:47:14.838Z,12.49
2017-10-27T11:49:42.367Z,12.44
2017-10-27T11:52:09.912Z,12.61
2017-10-27T11:54:37.400Z,12.72
2017-10-27T11:57:04.883Z,12.74
2017-10-27T11:59:32.503Z,12.63
2017-10-27T12:02:00.082Z,12.63
2017-10-27T12:04:27.596Z,12.69
2017-10-27T12:06:55.087Z,12.80
2017-10-27T12:09:22.640Z,12.83
2017-10-27T12:11:50.176Z,12.88
2017-10-27T12:14:17.662Z,12.77
2017-10-27T12:16:45.154Z,12.68
2017-10-27T12:19:12.690Z,12.75
2017-10-27T12:21:40.242Z,12.90
2017-10-27T12:24:07.792Z,13.08
2017-10-27T12:26:35.307Z,12.99
2017-10-27T12:29:02.795Z,13.07
2017-10-27T12:31:30.367Z,13.21
2017-10-27T12:33:57.852Z,12.99
2017-10-27T12:36:25.356Z,12.56
2017-10-27T12:38:52.883Z,12.26
2017-10-27T12:41:20.417Z,12.14
2017-10-27T12:43:47.907Z,12.15
2017-10-27T12:46:15.423Z,11.96
2017-10-27T12:48:42.922Z,11.66
2017-10-27T12:51:10.410Z,11.52
2017-10-27T12:53:37.931Z,11.33
2017-10-27T12:56:05.416Z,11.19
2017-10-27T12:58:32.958Z,11.15
2017-10-27T13:01:00.443Z,11.03
2017-10-27T13:03:28.031Z,10.92
2017-10-27T13:05:55.689Z,10.89
2017-10-27T13:08:23.176Z,10.86
2017-10-27T13:10:50.667Z,10.76
2017-10-27T13:13:18.204Z,10.73
2017-10-27T13:15:45.719Z,10.75
2017-10-27T13:18:13.202Z,10.71
2017-10-27T13:20:40.738Z,10.67
2017-10-27T13:23:08.313Z,10.66
2017-10-27T13:25:35.799Z,10.65
2017-10-27T13:28:03.421Z,10.59
2017-10-27T13:30:30.920Z,10.61
2017-10-27T13:32:58.412Z,10.71
2017-10-27T13:35:25.989Z,10.59
2017-10-27T13:37:53.488Z,10.60
2017-10-27T13:40:20.982Z,10.57
2017-10-27T13:42:48.631Z,10.50
2017-10-27T13:45:16.129Z,10.48
2017-10-27T13:47:43.621Z,10.47
2017-10-27T13:50:11.145Z,10.50
2017-10-27T13:52:38.631Z,10.51
2017-10-27T13:55:06.127Z,10.55
2017-10-27T13:57:33.661Z,10.59
2017-10-27T14:00:01.168Z,10.56
2017-10-27T14:02:28.655Z,10.47
2017-10-27T14:04:56.187Z,10.44
2017-10-27T14:07:23.667Z,10.44
2017-10-27T14:09:51.190Z,10.46
2017-10-27T14:12:18.676Z,10.40
2017-10-27T14:14:46.164Z,10.31
2017-10-27T14:17:13.886Z,10.19
2017-10-27T14:19:41.385Z,10.14
2017-10-27T14:22:08.884Z,10.07
2017-10-27T14:24:36.424Z,10.01
2017-10-27T14:27:03.913Z,9.90
2017-10-27T14:29:31.400Z,9.85
2017-10-27T14:31:58.909Z,9.85
2017-10-27T14:34:26.437Z,9.86
2017-10-27T14:36:53.920Z,9.89
2017-10-27T14:39:21.408Z,10.01
2017-10-27T14:41:48.946Z,10.06
2017-10-27T14:44:16.432Z,10.18
2017-10-27T14:46:43.922Z,10.31
2017-10-27T14:49:11.453Z,10.31
2017-10-27T14:51:38.952Z,10.27
2017-10-27T14:54:06.480Z,10.18
2017-10-27T14:56:34.020Z,10.16
2017-10-27T14:59:01.574Z,10.15
2017-10-27T15:01:29.066Z,10.11
2017-10-27T15:03:56.596Z,10.03
2017-10-27T15:06:24.164Z,9.96
2017-10-27T15:08:51.647Z,9.90
2017-10-27T15:11:19.193Z,9.88
2017-10-27T15:13:46.720Z,9.82
2017-10-27T15:16:14.201Z,9.78
2017-10-27T15:18:41.840Z,9.75
2017-10-27T15:21:09.338Z,9.74
2017-10-27T15:23:36.828Z,9.68
2017-10-27T15:26:04.443Z,9.65
2017-10-27T15:28:32.071Z,9.62
2017-10-27T15:30:59.660Z,9.61
2017-10-27T15:33:27.147Z,9.58
2017-10-27T15:35:54.667Z,9.59
2017-10-27T15:38:22.145Z,9.55
2017-10-27T15:40:49.633Z,9.52
2017-10-27T15:43:17.153Z,9.50
2017-10-27T15:45:44.635Z,9.44
2017-10-27T15:48:12.240Z,9.40
2017-10-27T15:50:39.735Z,9.41
2017-10-27T15:53:07.212Z,9.39
2017-10-27T15:55:34.806Z,9.37
2017-10-27T15:58:02.289Z,9.34
2017-10-27T16:00:29.779Z,9.33
2017-10-27T16:02:57.495Z,9.35
2017-10-27T16:05:24.977Z,9.38
2017-10-27T16:07:52.515Z,9.45
2017-10-27T16:10:20.045Z,9.44
2017-10-27T16:12:47.538Z,9.44
2017-10-27T16:15:15.025Z,9.43
2017-10-27T16:17:42.654Z,9.37
2017-10-27T16:20:10.148Z,9.33
2017-10-27T16:22:37.656Z,9.30
2017-10-27T16:25:05.219Z,9.30
2017-10-27T16:27:32.695Z,9.32
2017-10-27T16:30:00.182Z,9.28
2017-10-27T16:32:27.716Z,9.30
2017-10-27T16:34:55.202Z,9.31
2017-10-27T16:37:22.679Z,9.32
2017-10-27T16:39:50.277Z,9.34
2017-10-27T16:42:17.835Z,9.33
2017-10-27T16:44:45.353Z,9.28
2017-10-27T16:47:12.836Z,9.30
2017-10-27T16:49:40.316Z,9.28
2017-10-27T16:52:07.843Z,9.25
2017-10-27T16:54:35.424Z,9.31
2017-10-27T16:57:02.906Z,9.30
2017-10-27T16:59:30.445Z,9.32
2017-10-27T17:01:57.931Z,9.33
2017-10-27T17:04:25.417Z,9.32
2017-10-27T17:06:52.952Z,9.36
2017-10-27T17:09:20.449Z,9.39
2017-10-27T17:11:47.935Z,9.41
2017-10-27T17:14:15.448Z,9.49
2017-10-27T17:16:42.928Z,9.51
2017-10-27T17:19:10.404Z,9.50
2017-10-27T17:21:38.071Z,9.49
2017-10-27T17:24:05.556Z,9.49
2017-10-27T17:26:33.079Z,9.55
2017-10-27T17:29:00.645Z,9.64
2017-10-27T17:31:28.126Z,9.70
2017-10-27T17:33:55.612Z,9.75
2017-10-27T17:36:23.124Z,9.79
2017-10-27T17:38:50.640Z,9.80
2017-10-27T17:41:18.129Z,9.80
2017-10-27T17:43:45.621Z,9.81
2017-10-27T17:46:13.132Z,9.78
2017-10-27T17:48:40.612Z,9.79
2017-10-27T17:51:08.109Z,9.80
2017-10-27T17:53:35.739Z,9.85
2017-10-27T17:56:03.223Z,9.87
2017-10-27T17:58:30.751Z,9.84
2017-10-27T18:00:58.236Z,9.82
2017-10-27T18:03:25.727Z,9.81
2017-10-27T18:05:53.311Z,9.81
2017-10-27T18:08:20.874Z,9.81
2017-10-27T18:10:48.359Z,9.81
2017-10-27T18:13:16.096Z,9.78
2017-10-27T18:15:43.572Z,9.74
2017-10-27T18:18:11.064Z,9.73
2017-10-27T18:20:38.606Z,9.74
2017-10-27T18:23:06.088Z,9.75
2017-10-27T18:25:33.568Z,9.78
2017-10-27T18:28:01.091Z,9.79
2017-10-27T18:30:28.580Z,9.78
2017-10-27T18:32:56.074Z,9.73
2017-10-27T18:35:23.715Z,9.66
2017-10-27T18:37:51.296Z,9.61
2017-10-27T18:40:18.773Z,9.57
2017-10-27T18:42:46.295Z,9.53
2017-10-27T18:45:13.851Z,9.49
2017-10-27T18:47:41.329Z,9.46
2017-10-27T18:50:08.888Z,9.44
2017-10-27T18:52:36.374Z,9.41
2017-10-27T18:55:03.855Z,9.40
2017-10-27T18:57:31.379Z,9.38
2017-10-27T18:59:58.856Z,9.41
2017-10-27T19:02:26.329Z,9.41
2017-10-27T19:04:53.829Z,9.43
2017-10-27T19:07:21.357Z,9.47
2017-10-27T19:09:48.840Z,9.49
2017-10-27T19:12:16.323Z,9.48
2017-10-27T19:14:43.849Z,9.48
2017-10-27T19:17:11.332Z,9.49
2017-10-27T19:19:38.826Z,9.44
2017-10-27T19:22:06.390Z,9.45
2017-10-27T19:24:33.984Z,9.48
2017-10-27T19:27:01.471Z,9.49
2017-10-27T19:29:28.971Z,9.48
2017-10-27T19:31:56.552Z,9.49
2017-10-27T19:34:24.028Z,9.54
2017-10-27T19:36:51.503Z,9.55
2017-10-27T19:39:19.010Z,9.53
2017-10-27T19:41:46.488Z,9.54
2017-10-27T19:44:14.048Z,9.57
2017-10-27T19:46:41.550Z,9.62
2017-10-27T19:49:09.035Z,9.64
2017-10-27T19:51:36.540Z,9.58
2017-10-27T19:54:04.083Z,9.48
2017-10-27T19:56:31.567Z,9.42
2017-10-27T19:58:59.062Z,9.38
2017-10-27T20:01:26.775Z,9.33
2017-10-27T20:03:54.264Z,9.26
2017-10-27T20:06:21.757Z,9.21
2017-10-27T20:08:49.460Z,9.18
2017-10-27T20:11:17.009Z,9.18
2017-10-27T20:13:44.505Z,9.13
2017-10-27T20:16:12.053Z,9.09
2017-10-27T20:18:39.540Z,9.06
2017-10-27T20:21:07.123Z,9.06
2017-10-27T20:23:34.636Z,9.04
2017-10-27T20:26:02.254Z,9.06
2017-10-27T20:28:29.755Z,9.07
2017-10-27T20:30:57.244Z,9.09
2017-10-27T20:33:24.766Z,9.09
2017-10-27T20:35:52.256Z,9.13
2017-10-27T20:38:19.844Z,9.15
2017-10-27T20:40:47.375Z,9.12
2017-10-27T20:43:14.869Z,9.09
2017-10-27T20:45:42.360Z,9.02
2017-10-27T20:48:10.079Z,9.02
2017-10-27T20:50:37.639Z,9.04
2017-10-27T20:53:05.122Z,9.03
2017-10-27T20:55:32.752Z,9.02
2017-10-27T20:58:00.262Z,9.02
2017-10-27T21:00:27.768Z,9.02
2017-10-27T21:02:55.303Z,8.98
2017-10-27T21:05:22.783Z,8.93
2017-10-27T21:07:50.343Z,8.86
2017-10-27T21:10:17.876Z,8.85
2017-10-27T21:12:46.193Z,8.95
2017-10-27T21:15:13.748Z,9.02
2017-10-27T21:17:41.268Z,9.00
2017-10-27T21:20:08.752Z,9.03
2017-10-27T21:22:36.241Z,9.01
2017-10-27T21:25:03.752Z,8.99
2017-10-27T21:27:31.311Z,9.01
2017-10-27T21:29:58.891Z,9.09
2017-10-27T21:32:26.428Z,9.19
2017-10-27T21:34:53.912Z,9.25
2017-10-27T21:37:21.390Z,9.26
2017-10-27T21:39:48.938Z,9.26
2017-10-27T21:42:16.422Z,9.29
2017-10-27T21:44:43.916Z,9.29
2017-10-27T21:47:11.602Z,9.31
2017-10-27T21:49:39.076Z,9.32
2017-10-27T21:52:06.574Z,9.34
2017-10-27T21:54:34.203Z,9.35
2017-10-27T21:57:01.702Z,9.33
2017-10-27T21:59:29.184Z,9.34
2017-10-27T22:01:56.732Z,9.33
2017-10-27T22:04:24.213Z,9.31
2017-10-27T22:06:51.685Z,9.32
2017-10-27T22:09:19.194Z,9.31
2017-10-27T22:11:46.688Z,9.31
2017-10-27T22:14:14.339Z,9.29
2017-10-27T22:16:41.811Z,9.28
2017-10-27T22:19:09.303Z,9.27
2017-10-27T22:21:37.041Z,9.27
2017-10-27T22:24:04.608Z,9.28
2017-10-27T22:26:32.089Z,9.30
2017-10-27T22:28:59.812Z,9.31
2017-10-27T22:31:27.292Z,9.34
2017-10-27T22:33:54.780Z,9.34
2017-10-27T22:36:22.483Z,9.37
2017-10-27T22:38:49.978Z,9.41
2017-10-27T22:41:17.459Z,9.41
2017-10-27T22:43:45.001Z,9.44
2017-10-27T22:46:12.484Z,9.41
2017-10-27T22:48:39.964Z,9.44
2017-10-27T22:51:07.494Z,9.45
2017-10-27T22:53:34.977Z,9.44
2017-10-27T22:56:02.460Z,9.47
2017-10-27T22:58:29.988Z,9.49
2017-10-27T23:00:57.564Z,9.44
2017-10-27T23:03:25.043Z,9.39
2017-10-27T23:05:53.347Z,9.42
2017-10-27T23:08:20.834Z,9.42
2017-10-27T23:10:48.519Z,9.43
2017-10-27T23:13:16.000Z,9.44
2017-10-27T23:15:43.536Z,9.43
2017-10-27T23:18:11.046Z,9.42
2017-10-27T23:20:38.712Z,9.42
2017-10-27T23:23:06.188Z,9.44
2017-10-27T23:25:33.676Z,9.49
2017-10-27T23:28:01.229Z,9.45
2017-10-27T23:30:28.713Z,9.42
2017-10-27T23:32:56.219Z,9.45
2017-10-27T23:35:23.712Z,9.43
2017-10-27T23:37:51.190Z,9.44
2017-10-27T23:40:18.704Z,9.49
2017-10-27T23:42:46.192Z,9.48
2017-10-27T23:45:13.728Z,9.47
2017-10-27T23:47:41.253Z,9.51
2017-10-27T23:50:08.742Z,9.53
2017-10-27T23:52:36.228Z,9.50
2017-10-27T23:55:03.880Z,9.56
2017-10-27T23:57:31.364Z,9.52
2017-10-27T23:59:58.857Z,9.52
